createdAt,value
2022-12-19T00:00:34.959Z,54.63
2022-12-19T00:03:02.686Z,47.42
2022-12-19T00:05:30.253Z,43.30
2022-12-19T00:07:57.996Z,50.28
2022-12-19T00:10:26.922Z,48.45
2022-12-19T00:12:54.834Z,53.22
2022-12-19T00:15:22.343Z,48.03
2022-12-19T00:17:49.832Z,61.20
2022-12-19T00:20:18.650Z,51.53
2022-12-19T00:22:46.372Z,50.08
2022-12-19T00:25:13.806Z,46.22
2022-12-19T00:27:42.113Z,52.60
2022-12-19T00:30:10.790Z,47.83
2022-12-19T00:32:38.622Z,46.42
2022-12-19T00:35:06.481Z,50.17
2022-12-19T00:37:34.948Z,49.85
2022-12-19T00:40:04.639Z,54.17
2022-12-19T00:42:32.221Z,55.60
2022-12-19T00:44:59.628Z,53.22
2022-12-19T00:47:27.193Z,50.33
2022-12-19T00:49:54.595Z,53.47
2022-12-19T00:52:22.163Z,52.25
2022-12-19T00:54:51.022Z,52.95
2022-12-19T00:57:20.221Z,53.05
2022-12-19T00:59:47.898Z,54.85
2022-12-19T01:02:15.509Z,60.17
2022-12-19T01:04:43.291Z,55.40
2022-12-19T01:07:13.193Z,53.95
2022-12-19T01:09:40.822Z,49.28
2022-12-19T01:12:30.302Z,51.92
2022-12-19T01:15:04.435Z,50.78
2022-12-19T01:17:38.685Z,45.88
2022-12-19T01:20:29.227Z,53.45
2022-12-19T01:23:00.421Z,48.80
2022-12-19T01:25:28.574Z,57.30
2022-12-19T01:27:56.939Z,49.00
2022-12-19T01:30:24.673Z,47.33
2022-12-19T01:32:53.560Z,52.60
2022-12-19T01:35:22.209Z,54.47
2022-12-19T01:37:55.881Z,54.05
2022-12-19T01:40:35.111Z,57.05
2022-12-19T01:43:05.061Z,52.90
2022-12-19T01:45:35.929Z,51.10
2022-12-19T01:48:12.577Z,54.87
2022-12-19T01:51:01.802Z,49.67
2022-12-19T01:53:48.655Z,45.67
2022-12-19T01:56:24.700Z,46.53
2022-12-19T01:59:06.521Z,43.65
2022-12-19T02:01:48.546Z,41.63
2022-12-19T02:04:24.358Z,50.50
2022-12-19T02:06:57.653Z,47.30
2022-12-19T02:09:25.459Z,54.80
2022-12-19T02:11:53.964Z,41.95
2022-12-19T02:14:22.185Z,51.75
2022-12-19T02:17:18.260Z,44.25
2022-12-19T02:19:58.088Z,44.80
2022-12-19T02:22:58.867Z,45.97
2022-12-19T02:25:48.041Z,54.20
2022-12-19T02:28:22.798Z,42.75
2022-12-19T02:31:20.352Z,40.72
2022-12-19T02:33:58.895Z,46.97
2022-12-19T02:36:41.919Z,42.00
2022-12-19T02:39:18.104Z,43.95
2022-12-19T02:41:51.806Z,41.60
2022-12-19T02:44:29.527Z,40.20
2022-12-19T02:47:00.499Z,36.78
2022-12-19T02:49:30.965Z,44.85
2022-12-19T02:52:11.466Z,45.08
2022-12-19T02:54:45.146Z,39.50
2022-12-19T02:57:28.146Z,43.75
2022-12-19T03:00:08.590Z,41.03
2022-12-19T03:03:03.578Z,39.95
2022-12-19T03:05:34.479Z,44.38
2022-12-19T03:09:00.628Z,42.63
2022-12-19T03:11:36.276Z,42.13
2022-12-19T03:14:12.465Z,40.05
2022-12-19T03:16:41.462Z,39.60
2022-12-19T03:19:12.336Z,48.15
2022-12-19T03:21:45.445Z,46.97
2022-12-19T03:24:14.988Z,42.22
2022-12-19T03:26:50.585Z,42.90
2022-12-19T03:29:24.713Z,42.85
2022-12-19T03:31:53.199Z,36.17
2022-12-19T03:34:45.183Z,38.63
2022-12-19T03:37:20.861Z,40.78
2022-12-19T03:39:54.657Z,44.00
2022-12-19T03:42:44.433Z,41.28
2022-12-19T03:45:15.742Z,44.90
2022-12-19T03:47:54.284Z,42.08
2022-12-19T03:50:26.089Z,42.83
2022-12-19T03:53:12.174Z,42.85
2022-12-19T03:55:53.710Z,46.47
2022-12-19T03:58:45.796Z,46.83
2022-12-19T04:01:13.919Z,44.53
2022-12-19T04:03:41.481Z,43.72
2022-12-19T04:06:10.153Z,46.97
2022-12-19T04:08:38.192Z,46.20
2022-12-19T04:11:11.141Z,45.38
2022-12-19T04:13:44.663Z,46.95
2022-12-19T04:16:38.783Z,45.38
2022-12-19T04:19:16.988Z,53.17
2022-12-19T04:21:52.791Z,48.30
2022-12-19T04:24:28.200Z,48.95
2022-12-19T04:26:57.701Z,42.58
2022-12-19T04:29:28.748Z,49.05
2022-12-19T04:31:56.987Z,43.97
2022-12-19T04:34:24.418Z,49.38
2022-12-19T04:36:51.908Z,46.10
2022-12-19T04:39:19.489Z,46.67
2022-12-19T04:41:46.990Z,49.35
2022-12-19T04:44:14.497Z,49.25
2022-12-19T04:46:42.162Z,50.03
2022-12-19T04:49:09.676Z,45.38
2022-12-19T04:51:37.220Z,47.45
2022-12-19T04:54:04.695Z,50.58
2022-12-19T04:56:32.375Z,50.38
2022-12-19T04:59:00.559Z,51.17
2022-12-19T05:01:28.209Z,49.78
2022-12-19T05:03:59.917Z,48.22
2022-12-19T05:06:30.445Z,46.67
2022-12-19T05:10:06.474Z,46.60
2022-12-19T05:12:34.163Z,44.00
2022-12-19T05:15:01.811Z,41.40
2022-12-19T05:17:29.363Z,45.20
2022-12-19T05:19:56.927Z,44.58
2022-12-19T05:22:27.519Z,53.25
2022-12-19T05:24:55.068Z,55.03
2022-12-19T05:27:22.714Z,49.65
2022-12-19T05:29:50.208Z,51.47
2022-12-19T05:32:18.011Z,57.67
2022-12-19T05:34:45.558Z,53.10
2022-12-19T05:37:13.039Z,55.72
2022-12-19T05:39:40.678Z,49.10
2022-12-19T05:42:12.193Z,66.43
2022-12-19T05:44:40.137Z,67.00
2022-12-19T05:47:08.177Z,67.43
2022-12-19T05:49:35.746Z,62.28
2022-12-19T05:52:03.183Z,58.90
2022-12-19T05:54:30.748Z,57.55
2022-12-19T05:56:58.368Z,62.17
2022-12-19T05:59:27.344Z,64.80
2022-12-19T06:01:54.871Z,58.63
2022-12-19T06:04:22.501Z,55.83
2022-12-19T06:06:49.963Z,56.85
2022-12-19T06:09:17.609Z,52.85
2022-12-19T06:11:45.040Z,61.22
2022-12-19T06:14:13.690Z,64.35
2022-12-19T06:16:41.207Z,59.08
2022-12-19T06:19:08.895Z,58.80
2022-12-19T06:21:39.767Z,60.78
2022-12-19T06:24:13.153Z,61.13
2022-12-19T06:26:40.799Z,59.33
2022-12-19T06:29:08.346Z,62.30
2022-12-19T06:31:35.881Z,58.03
2022-12-19T06:34:03.452Z,62.05
2022-12-19T06:36:31.846Z,62.15
2022-12-19T06:38:59.455Z,67.88
2022-12-19T06:41:46.387Z,67.28
2022-12-19T06:44:15.982Z,61.35
2022-12-19T06:46:44.135Z,63.15
2022-12-19T06:49:12.165Z,66.32
2022-12-19T06:51:40.165Z,63.25
2022-12-19T06:54:07.739Z,61.42
2022-12-19T06:56:37.252Z,62.70
2022-12-19T06:59:06.172Z,67.88
2022-12-19T07:01:58.315Z,59.50
2022-12-19T07:04:40.418Z,67.57
2022-12-19T07:07:08.224Z,64.78
2022-12-19T07:09:35.705Z,60.47
2022-12-19T07:12:03.497Z,61.13
2022-12-19T07:14:33.862Z,61.65
2022-12-19T07:17:03.191Z,55.00
2022-12-19T07:19:33.040Z,59.08
2022-12-19T07:22:02.427Z,54.90
2022-12-19T07:24:30.506Z,54.72
2022-12-19T07:26:58.667Z,63.03
2022-12-19T07:29:26.878Z,59.92
2022-12-19T07:31:54.659Z,57.22
2022-12-19T07:34:22.254Z,60.35
2022-12-19T07:36:52.447Z,64.63
2022-12-19T07:39:19.906Z,58.97
2022-12-19T07:41:47.642Z,55.08
2022-12-19T07:44:16.683Z,58.92
2022-12-19T07:46:45.243Z,58.17
2022-12-19T07:49:14.226Z,59.25
2022-12-19T07:51:43.377Z,59.40
2022-12-19T07:54:10.989Z,61.70
2022-12-19T07:56:38.466Z,55.58
2022-12-19T07:59:05.867Z,55.30
2022-12-19T08:01:33.510Z,58.40
2022-12-19T08:04:01.226Z,57.67
2022-12-19T08:06:28.827Z,57.63
2022-12-19T08:08:57.287Z,57.05
2022-12-19T08:11:29.579Z,63.67
2022-12-19T08:13:58.205Z,58.20
2022-12-19T08:16:27.759Z,64.90
2022-12-19T08:18:55.929Z,61.13
2022-12-19T08:21:24.018Z,60.92
2022-12-19T08:23:52.978Z,59.67
2022-12-19T08:26:25.384Z,63.80
2022-12-19T08:28:55.432Z,58.78
2022-12-19T08:31:25.652Z,61.63
2022-12-19T08:33:55.100Z,60.63
2022-12-19T08:36:23.574Z,65.40
2022-12-19T08:38:51.193Z,61.85
2022-12-19T08:41:19.276Z,59.28
2022-12-19T08:43:51.823Z,61.10
2022-12-19T08:46:20.694Z,61.42
2022-12-19T08:48:48.307Z,61.30
2022-12-19T08:51:17.298Z,59.85
2022-12-19T08:53:46.460Z,63.80
2022-12-19T08:56:20.194Z,65.32
2022-12-19T08:58:48.846Z,60.75
2022-12-19T09:01:19.459Z,70.75
2022-12-19T09:04:22.583Z,64.47
2022-12-19T09:06:35.352Z,70.43
2022-12-19T09:09:04.140Z,60.67
2022-12-19T09:11:31.849Z,75.47
2022-12-19T09:13:59.599Z,74.43
2022-12-19T09:16:28.976Z,76.65
2022-12-19T09:18:58.980Z,72.68
2022-12-19T09:21:30.530Z,70.55
2022-12-19T09:24:07.095Z,71.45
2022-12-19T09:26:36.033Z,71.70
2022-12-19T09:29:08.711Z,69.18
2022-12-19T09:31:55.465Z,70.07
2022-12-19T09:34:29.974Z,62.42
2022-12-19T09:37:16.927Z,66.35
2022-12-19T09:39:46.718Z,72.35
2022-12-19T09:42:27.704Z,75.32
2022-12-19T09:45:29.928Z,64.22
2022-12-19T09:48:01.633Z,71.13
2022-12-19T09:50:54.645Z,70.10
2022-12-19T09:53:33.045Z,79.75
2022-12-19T09:56:03.052Z,70.07
2022-12-19T09:58:41.295Z,73.82
2022-12-19T10:01:19.555Z,69.82
2022-12-19T10:04:12.154Z,68.82
2022-12-19T10:07:11.539Z,69.25
2022-12-19T10:11:27.829Z,68.00
2022-12-19T10:12:44.543Z,68.10
2022-12-19T10:15:59.814Z,67.68
2022-12-19T10:18:34.137Z,71.03
2022-12-19T10:21:09.677Z,71.43
2022-12-19T10:23:55.912Z,67.80
2022-12-19T10:26:35.382Z,65.47
2022-12-19T10:29:05.773Z,68.32
2022-12-19T10:31:53.527Z,68.90
2022-12-19T10:34:32.699Z,70.15
2022-12-19T10:37:34.302Z,73.18
2022-12-19T10:40:27.799Z,71.05
2022-12-19T10:43:15.265Z,75.32
2022-12-19T10:45:51.995Z,68.70
2022-12-19T10:48:30.783Z,73.70
2022-12-19T10:51:02.070Z,78.32
2022-12-19T10:53:34.463Z,82.38
2022-12-19T10:56:13.215Z,77.38
2022-12-19T10:58:43.727Z,72.45
2022-12-19T11:01:15.780Z,77.38
2022-12-19T11:03:48.316Z,76.13
2022-12-19T11:06:51.619Z,77.85
2022-12-19T11:09:30.960Z,80.63
2022-12-19T11:15:21.803Z,77.65
2022-12-19T11:20:26.306Z,83.78
2022-12-19T11:22:14.546Z,74.68
2022-12-19T11:30:05.066Z,74.95
2022-12-19T11:30:25.641Z,74.63
2022-12-19T11:30:45.505Z,74.57
2022-12-19T11:32:45.020Z,75.75
2022-12-19T11:35:36.666Z,79.50
2022-12-19T11:38:08.509Z,85.13
2022-12-19T11:40:57.846Z,80.53
2022-12-19T11:43:43.749Z,80.43
2022-12-19T11:46:22.031Z,82.07
2022-12-19T11:49:03.050Z,79.35
2022-12-19T11:51:42.772Z,81.50
2022-12-19T11:54:24.208Z,87.68
2022-12-19T11:56:51.790Z,77.25
2022-12-19T11:59:24.731Z,75.57
2022-12-19T12:02:20.167Z,72.20
2022-12-19T12:05:24.403Z,70.95
2022-12-19T12:09:59.334Z,78.13
2022-12-19T12:20:25.278Z,70.63
2022-12-19T12:21:05.474Z,76.43
2022-12-19T12:22:00.704Z,74.25
2022-12-19T12:31:17.848Z,71.30
2022-12-19T12:31:45.834Z,62.33
2022-12-19T12:32:06.048Z,70.68
2022-12-19T12:35:14.335Z,66.22
2022-12-19T12:35:50.922Z,65.90
2022-12-19T12:38:38.023Z,55.42
2022-12-19T12:41:48.244Z,70.55
2022-12-19T12:44:15.941Z,66.50
2022-12-19T12:46:54.892Z,63.10
2022-12-19T12:49:33.775Z,61.15
2022-12-19T12:52:03.443Z,61.83
2022-12-19T12:54:37.893Z,68.25
2022-12-19T12:57:05.957Z,63.70
2022-12-19T12:59:33.793Z,65.95
2022-12-19T13:02:24.689Z,64.53
2022-12-19T13:05:01.218Z,70.85
2022-12-19T13:07:51.342Z,60.42
2022-12-19T13:10:24.421Z,68.63
2022-12-19T13:13:02.689Z,63.47
2022-12-19T13:15:32.207Z,67.97
2022-12-19T13:18:38.191Z,68.97
2022-12-19T13:21:08.238Z,67.43
2022-12-19T13:23:39.055Z,68.97
2022-12-19T13:26:21.158Z,69.45
2022-12-19T13:28:48.961Z,67.30
2022-12-19T13:31:21.904Z,67.10
2022-12-19T13:33:56.016Z,69.90
2022-12-19T13:39:58.313Z,64.97
2022-12-19T13:40:32.553Z,67.22
2022-12-19T13:43:34.641Z,63.58
2022-12-19T13:46:32.379Z,70.35
2022-12-19T13:49:06.282Z,68.90
2022-12-19T13:51:57.166Z,72.57
2022-12-19T13:54:33.092Z,70.60
2022-12-19T13:57:08.025Z,60.28
2022-12-19T13:59:39.265Z,69.82
2022-12-19T14:02:16.082Z,64.40
2022-12-19T14:04:45.562Z,63.45
2022-12-19T14:07:34.813Z,65.43
2022-12-19T14:11:29.733Z,64.18
2022-12-19T14:13:45.140Z,58.35
2022-12-19T14:16:04.448Z,62.47
2022-12-19T14:18:44.868Z,64.40
2022-12-19T14:22:11.645Z,66.65
2022-12-19T14:24:20.932Z,65.78
2022-12-19T14:28:23.836Z,62.65
2022-12-19T14:30:29.902Z,62.17
2022-12-19T14:33:44.432Z,68.50
2022-12-19T14:36:10.440Z,63.47
2022-12-19T14:39:20.965Z,64.80
2022-12-19T14:42:03.219Z,63.45
2022-12-19T14:52:11.542Z,60.08
2022-12-19T14:53:51.615Z,64.45
2022-12-19T14:54:29.064Z,62.55
2022-12-19T14:54:41.627Z,65.15
2022-12-19T14:59:17.660Z,65.65
2022-12-19T15:02:06.379Z,62.80
2022-12-19T15:04:54.851Z,59.33
2022-12-19T15:07:28.942Z,59.85
2022-12-19T15:14:57.724Z,56.47
2022-12-19T15:16:30.080Z,61.13
2022-12-19T15:19:00.428Z,69.45
2022-12-19T15:21:32.293Z,65.43
2022-12-19T15:24:00.018Z,65.35
2022-12-19T15:26:36.341Z,67.22
2022-12-19T15:29:14.099Z,63.50
2022-12-19T15:31:45.832Z,60.28
2022-12-19T15:34:48.299Z,57.88
2022-12-19T15:37:15.901Z,58.58
2022-12-19T15:39:44.788Z,62.55
2022-12-19T15:42:31.438Z,60.60
2022-12-19T15:45:01.243Z,56.42
2022-12-19T15:47:37.005Z,63.85
2022-12-19T15:50:23.360Z,67.60
2022-12-19T15:52:55.073Z,62.10
2022-12-19T15:55:25.388Z,63.38
2022-12-19T15:57:58.670Z,64.40
2022-12-19T16:00:29.561Z,59.47
2022-12-19T16:03:23.195Z,60.83
2022-12-19T16:05:46.058Z,65.60
2022-12-19T16:08:16.129Z,61.42
2022-12-19T16:10:46.198Z,54.45
2022-12-19T16:13:21.355Z,55.03
2022-12-19T16:15:49.731Z,52.70
2022-12-19T16:18:19.979Z,57.92
2022-12-19T16:20:48.349Z,59.75
2022-12-19T16:23:16.169Z,63.08
2022-12-19T16:25:47.477Z,59.05
2022-12-19T16:28:16.767Z,62.85
2022-12-19T16:30:44.736Z,62.65
2022-12-19T16:33:20.228Z,62.15
2022-12-19T16:36:06.132Z,57.00
2022-12-19T16:38:34.848Z,57.80
2022-12-19T16:41:02.747Z,56.88
2022-12-19T16:43:33.960Z,59.28
2022-12-19T16:46:04.227Z,57.45
2022-12-19T16:48:32.152Z,55.40
2022-12-19T16:51:00.042Z,55.90
2022-12-19T16:53:27.975Z,57.45
2022-12-19T16:55:57.545Z,59.55
2022-12-19T16:58:27.494Z,62.25
2022-12-19T17:00:56.160Z,63.67
2022-12-19T17:03:32.820Z,61.05
2022-12-19T17:06:01.398Z,60.45
2022-12-19T17:08:28.866Z,60.08
2022-12-19T17:10:56.608Z,60.25
2022-12-19T17:13:25.038Z,56.83
2022-12-19T17:15:56.744Z,55.72
2022-12-19T17:18:24.847Z,53.53
2022-12-19T17:20:52.258Z,54.65
2022-12-19T17:23:24.429Z,55.63
2022-12-19T17:25:54.539Z,58.13
2022-12-19T17:28:22.755Z,59.65
2022-12-19T17:30:57.631Z,54.70
2022-12-19T17:33:33.147Z,55.50
2022-12-19T17:36:02.041Z,59.97
2022-12-19T17:38:29.547Z,62.10
2022-12-19T17:40:57.272Z,68.78
2022-12-19T17:43:25.127Z,60.83
2022-12-19T17:45:52.850Z,65.63
2022-12-19T17:48:28.150Z,64.75
2022-12-19T17:50:56.505Z,64.78
2022-12-19T17:53:24.754Z,64.97
2022-12-19T17:55:52.501Z,59.28
2022-12-19T17:58:19.942Z,63.22
2022-12-19T18:00:48.063Z,62.63
2022-12-19T18:03:26.428Z,62.78
2022-12-19T18:05:55.692Z,60.22
2022-12-19T18:08:32.447Z,61.88
2022-12-19T18:11:02.183Z,59.08
2022-12-19T18:13:31.281Z,66.10
2022-12-19T18:16:01.343Z,63.40
2022-12-19T18:18:35.659Z,60.20
2022-12-19T18:21:04.433Z,52.95
2022-12-19T18:23:32.364Z,56.13
2022-12-19T18:26:02.206Z,53.53
2022-12-19T18:28:30.857Z,58.17
2022-12-19T18:31:22.233Z,54.10
2022-12-19T18:33:50.464Z,54.47
2022-12-19T18:36:21.001Z,57.42
2022-12-19T18:38:49.553Z,61.17
2022-12-19T18:41:18.197Z,61.13
2022-12-19T18:43:46.196Z,56.03
2022-12-19T18:46:16.378Z,58.40
2022-12-19T18:48:45.271Z,62.08
2022-12-19T18:51:18.963Z,59.58
2022-12-19T18:53:48.758Z,62.13
2022-12-19T18:56:16.461Z,53.33
2022-12-19T18:58:43.962Z,52.42
2022-12-19T19:01:15.872Z,57.42
2022-12-19T19:03:51.965Z,51.28
2022-12-19T19:06:22.806Z,52.63
2022-12-19T19:08:53.432Z,46.78
2022-12-19T19:11:33.548Z,54.10
2022-12-19T19:14:01.096Z,49.38
2022-12-19T19:16:28.850Z,48.55
2022-12-19T19:18:58.727Z,54.13
2022-12-19T19:21:32.634Z,52.45
2022-12-19T19:24:00.157Z,51.22
2022-12-19T19:26:27.711Z,56.28
2022-12-19T19:28:55.336Z,50.25
2022-12-19T19:31:26.685Z,54.47
2022-12-19T19:34:00.777Z,52.20
2022-12-19T19:36:31.209Z,55.95
2022-12-19T19:38:58.834Z,58.65
2022-12-19T19:41:30.301Z,60.40
2022-12-19T19:43:59.889Z,56.17
2022-12-19T19:46:28.168Z,57.13
2022-12-19T19:48:57.663Z,53.40
2022-12-19T19:51:25.442Z,55.75
2022-12-19T19:53:53.002Z,53.53
2022-12-19T19:56:20.522Z,57.47
2022-12-19T19:58:48.030Z,60.00
2022-12-19T20:01:15.626Z,60.08
2022-12-19T20:03:45.226Z,60.80
2022-12-19T20:06:12.972Z,58.22
2022-12-19T20:08:41.137Z,66.03
2022-12-19T20:11:09.588Z,68.43
2022-12-19T20:13:37.779Z,66.20
2022-12-19T20:16:08.741Z,70.50
2022-12-19T20:18:37.537Z,74.43
2022-12-19T20:21:13.449Z,74.07
2022-12-19T20:23:43.104Z,69.30
2022-12-19T20:26:16.616Z,79.40
2022-12-19T20:31:19.762Z,74.80
2022-12-19T20:33:48.712Z,77.80
2022-12-19T20:36:16.882Z,78.57
2022-12-19T20:38:44.957Z,73.10
2022-12-19T20:41:13.002Z,67.90
2022-12-19T20:43:41.526Z,71.03
2022-12-19T20:46:14.993Z,74.65
2022-12-19T20:51:10.398Z,71.85
2022-12-19T20:53:39.148Z,73.07
2022-12-19T20:56:07.962Z,78.43
2022-12-19T20:58:37.287Z,73.53
2022-12-19T21:01:11.314Z,73.00
2022-12-19T21:03:39.744Z,78.72
2022-12-19T21:06:08.887Z,81.85
2022-12-19T21:08:36.825Z,87.40
2022-12-19T21:11:06.154Z,80.07
2022-12-19T21:13:34.545Z,83.75
2022-12-19T21:16:04.461Z,86.03
2022-12-19T21:18:32.096Z,85.75
2022-12-19T21:21:00.396Z,84.45
2022-12-19T21:23:28.782Z,86.00
2022-12-19T21:26:01.707Z,81.88
2022-12-19T21:28:29.589Z,94.10
2022-12-19T21:31:03.250Z,79.90
2022-12-19T21:33:31.193Z,81.78
2022-12-19T21:36:05.577Z,77.63
2022-12-19T21:38:33.126Z,73.40
2022-12-19T21:41:06.008Z,81.07
2022-12-19T21:43:34.610Z,71.07
2022-12-19T21:46:12.702Z,74.15
2022-12-19T21:48:43.212Z,77.88
2022-12-19T21:51:11.955Z,77.55
2022-12-19T21:53:40.000Z,73.70
2022-12-19T21:56:19.914Z,73.55
2022-12-19T21:58:47.412Z,76.00
2022-12-19T22:01:15.711Z,74.95
2022-12-19T22:03:43.713Z,76.13
2022-12-19T22:06:27.383Z,75.32
2022-12-19T22:08:56.100Z,70.88
2022-12-19T22:11:24.307Z,69.70
2022-12-19T22:13:52.106Z,68.80
2022-12-19T22:16:19.745Z,68.70
2022-12-19T22:18:47.626Z,66.22
2022-12-19T22:21:15.757Z,68.40
2022-12-19T22:23:43.515Z,69.57
2022-12-19T22:26:17.669Z,66.40
2022-12-19T22:28:47.497Z,65.72
2022-12-19T22:31:23.277Z,66.38
2022-12-19T22:33:52.982Z,68.85
2022-12-19T22:36:27.641Z,71.53
2022-12-19T22:38:58.191Z,72.38
2022-12-19T22:41:26.917Z,67.07
2022-12-19T22:43:55.097Z,68.68
2022-12-19T22:46:27.970Z,68.95
2022-12-19T22:48:57.625Z,61.25
2022-12-19T22:51:26.641Z,68.78
2022-12-19T22:53:54.844Z,68.53
2022-12-19T22:56:25.311Z,70.65
2022-12-19T22:58:55.648Z,64.38
2022-12-19T23:01:25.526Z,71.20
2022-12-19T23:03:55.943Z,68.63
2022-12-19T23:06:26.022Z,65.20
2022-12-19T23:08:54.117Z,65.22
2022-12-19T23:11:29.146Z,62.83
2022-12-19T23:13:57.055Z,70.38
2022-12-19T23:16:24.593Z,64.53
2022-12-19T23:18:52.118Z,60.63
2022-12-19T23:21:21.955Z,68.03
2022-12-19T23:23:52.338Z,62.65
2022-12-19T23:26:23.457Z,68.05
2022-12-19T23:28:56.742Z,66.82
2022-12-19T23:31:25.216Z,64.50
2022-12-19T23:33:53.687Z,63.58
2022-12-19T23:36:44.981Z,70.88
2022-12-19T23:39:11.073Z,68.55
2022-12-19T23:41:39.187Z,71.72
2022-12-19T23:44:08.009Z,63.38
2022-12-19T23:46:35.823Z,67.20
2022-12-19T23:49:03.910Z,62.72
2022-12-19T23:51:31.656Z,73.03
2022-12-19T23:53:59.252Z,66.28
2022-12-19T23:56:29.990Z,64.07
2022-12-19T23:58:58.710Z,67.93
